createdAt,value
2023-12-27T00:04:32.146Z,1.92
2023-12-27T00:09:35.146Z,2.65
2023-12-27T00:14:39.565Z,2.33
2023-12-27T00:19:42.681Z,2.60
2023-12-27T00:24:45.715Z,2.13
2023-12-27T00:29:50.025Z,2.22
2023-12-27T00:34:52.951Z,2.30
2023-12-27T00:39:55.857Z,2.15
2023-12-27T00:45:00.545Z,2.25
2023-12-27T00:50:04.030Z,4.40
2023-12-27T00:55:07.889Z,1.95
2023-12-27T01:00:13.649Z,2.42
2023-12-27T01:05:17.178Z,2.45
2023-12-27T01:10:20.230Z,3.65
2023-12-27T01:15:24.639Z,2.55
2023-12-27T01:20:29.125Z,2.55
2023-12-27T01:25:32.117Z,3.08
2023-12-27T01:30:37.171Z,2.97
2023-12-27T01:35:41.219Z,3.35
2023-12-27T01:40:49.729Z,2.50
2023-12-27T01:45:54.362Z,1.90
2023-12-27T01:50:59.277Z,2.67
2023-12-27T01:56:03.873Z,2.65
2023-12-27T02:01:08.279Z,4.10
2023-12-27T02:06:13.148Z,2.20
2023-12-27T02:11:16.236Z,3.00
2023-12-27T02:16:22.598Z,3.33
2023-12-27T02:21:27.806Z,3.03
2023-12-27T02:26:33.254Z,2.83
2023-12-27T02:31:36.334Z,3.08
2023-12-27T02:36:39.335Z,2.85
2023-12-27T02:41:43.688Z,3.03
2023-12-27T02:46:46.743Z,2.97
2023-12-27T02:51:50.114Z,3.33
2023-12-27T02:56:54.493Z,3.92
2023-12-27T03:01:58.275Z,3.88
2023-12-27T03:07:01.334Z,4.30
2023-12-27T03:12:07.585Z,4.05
2023-12-27T03:17:10.555Z,5.03
2023-12-27T03:22:14.034Z,3.72
2023-12-27T03:27:18.413Z,4.05
2023-12-27T03:32:21.444Z,4.72
2023-12-27T03:37:24.540Z,4.38
2023-12-27T03:42:28.903Z,4.85
2023-12-27T03:47:31.985Z,4.72
2023-12-27T03:52:35.447Z,4.93
2023-12-27T03:57:39.876Z,4.70
2023-12-27T04:02:42.919Z,4.78
2023-12-27T04:07:45.930Z,4.45
2023-12-27T04:12:50.239Z,5.25
2023-12-27T04:17:53.490Z,4.82
2023-12-27T04:22:56.498Z,4.28
2023-12-27T04:28:01.739Z,4.22
2023-12-27T04:33:05.436Z,5.05
2023-12-27T04:38:14.535Z,5.00
2023-12-27T04:43:19.086Z,4.80
2023-12-27T04:48:22.259Z,5.15
2023-12-27T04:53:25.321Z,4.78
2023-12-27T04:58:29.678Z,4.85
2023-12-27T05:03:36.232Z,4.97
2023-12-27T05:08:41.319Z,4.75
2023-12-27T05:13:45.838Z,4.38
2023-12-27T05:18:49.125Z,4.18
2023-12-27T05:23:52.169Z,3.92
2023-12-27T05:28:56.494Z,4.28
2023-12-27T05:33:59.804Z,5.78
2023-12-27T05:39:04.797Z,5.22
2023-12-27T05:44:09.241Z,5.43
2023-12-27T05:49:12.221Z,7.20
2023-12-27T05:54:15.694Z,4.93
2023-12-27T05:59:20.115Z,5.40
2023-12-27T06:04:23.325Z,5.45
2023-12-27T06:09:26.584Z,6.00
2023-12-27T06:14:30.915Z,6.60
2023-12-27T06:19:33.995Z,6.45
2023-12-27T06:24:37.173Z,6.13
2023-12-27T06:29:42.727Z,8.23
2023-12-27T06:34:45.670Z,7.40
2023-12-27T06:39:48.587Z,7.35
2023-12-27T06:44:53.588Z,7.00
2023-12-27T06:49:56.606Z,7.97
2023-12-27T06:54:59.557Z,6.68
2023-12-27T07:00:04.031Z,6.82
2023-12-27T07:05:07.932Z,5.40
2023-12-27T07:10:13.431Z,4.93
2023-12-27T07:15:18.427Z,5.95
2023-12-27T07:20:22.296Z,5.35
2023-12-27T07:25:26.522Z,6.25
2023-12-27T07:30:30.953Z,5.60
2023-12-27T07:35:34.032Z,5.63
2023-12-27T07:40:37.084Z,7.95
2023-12-27T07:45:41.465Z,7.80
2023-12-27T07:50:45.167Z,7.35
2023-12-27T07:55:48.164Z,4.47
2023-12-27T08:00:54.373Z,4.35
2023-12-27T08:05:57.645Z,4.18
2023-12-27T08:11:00.645Z,3.90
2023-12-27T08:16:05.435Z,3.80
2023-12-27T08:21:08.446Z,3.45
2023-12-27T08:26:11.907Z,3.78
2023-12-27T08:31:16.349Z,2.45
2023-12-27T08:36:19.748Z,3.58
2023-12-27T08:41:26.009Z,2.88
2023-12-27T08:46:30.364Z,2.65
2023-12-27T08:51:33.386Z,3.58
2023-12-27T08:56:36.379Z,4.90
2023-12-27T09:01:40.804Z,4.65
2023-12-27T09:06:45.686Z,4.20
2023-12-27T09:11:48.678Z,4.38
2023-12-27T09:16:53.138Z,3.28
2023-12-27T09:21:56.100Z,4.90
2023-12-27T09:26:59.754Z,5.03
2023-12-27T09:32:04.538Z,4.57
2023-12-27T09:37:07.624Z,4.78
2023-12-27T09:42:10.751Z,4.70
2023-12-27T09:47:18.210Z,4.85
2023-12-27T09:52:23.647Z,6.03
2023-12-27T09:57:27.403Z,5.05
2023-12-27T10:02:32.141Z,5.22
2023-12-27T10:07:40.217Z,4.97
2023-12-27T10:12:43.403Z,5.60
2023-12-27T10:17:47.783Z,5.50
2023-12-27T10:22:50.808Z,5.60
2023-12-27T10:27:53.823Z,6.30
2023-12-27T10:33:01.965Z,5.75
2023-12-27T10:38:07.607Z,6.93
2023-12-27T10:43:11.153Z,6.43
2023-12-27T10:48:17.404Z,7.00
2023-12-27T10:53:22.261Z,6.63
2023-12-27T10:58:25.663Z,6.35
2023-12-27T11:03:31.843Z,6.45
2023-12-27T11:08:37.076Z,7.32
2023-12-27T11:13:40.820Z,7.25
2023-12-27T11:18:47.114Z,7.20
2023-12-27T11:23:50.283Z,7.45
2023-12-27T11:28:53.277Z,8.18
2023-12-27T11:33:57.704Z,7.82
2023-12-27T11:39:04.402Z,8.93
2023-12-27T11:44:09.442Z,7.60
2023-12-27T11:49:20.650Z,7.50
2023-12-27T11:54:27.507Z,8.65
2023-12-27T11:59:30.576Z,7.93
2023-12-27T12:04:56.650Z,7.57
2023-12-27T12:09:59.597Z,8.35
2023-12-27T12:15:03.196Z,8.18
2023-12-27T12:20:09.332Z,11.05
2023-12-27T12:25:12.824Z,10.25
2023-12-27T12:30:17.927Z,9.95
2023-12-27T12:35:22.301Z,8.77
2023-12-27T12:40:25.392Z,8.75
2023-12-27T12:45:28.617Z,8.77
2023-12-27T12:50:32.939Z,8.57
2023-12-27T12:55:36.399Z,23.55
2023-12-27T13:00:39.620Z,25.45
2023-12-27T13:05:44.067Z,24.00
2023-12-27T13:10:48.299Z,14.68
2023-12-27T13:15:51.371Z,13.20
2023-12-27T13:20:55.864Z,13.27
2023-12-27T13:25:58.813Z,10.52
2023-12-27T13:31:02.286Z,10.63
2023-12-27T13:36:07.257Z,10.43
2023-12-27T13:41:10.235Z,9.82
2023-12-27T13:46:13.882Z,5.75
2023-12-27T13:51:18.394Z,7.50
2023-12-27T13:56:21.370Z,6.15
2023-12-27T14:01:24.774Z,5.70
2023-12-27T14:06:29.189Z,6.72
2023-12-27T14:11:32.286Z,7.18
2023-12-27T14:16:35.326Z,7.07
2023-12-27T14:21:40.205Z,8.88
2023-12-27T14:26:43.486Z,8.02
2023-12-27T14:31:47.970Z,8.32
2023-12-27T14:36:52.418Z,8.48
2023-12-27T14:41:56.470Z,9.43
2023-12-27T14:46:59.439Z,8.85
2023-12-27T14:52:04.368Z,8.32
2023-12-27T14:57:07.342Z,8.13
2023-12-27T15:02:10.454Z,7.88
2023-12-27T15:07:14.812Z,7.38
2023-12-27T15:12:17.921Z,7.20
2023-12-27T15:17:20.870Z,6.90
2023-12-27T15:22:25.187Z,6.10
2023-12-27T15:27:28.429Z,5.03
2023-12-27T15:32:32.117Z,3.30
2023-12-27T15:37:37.143Z,3.63
2023-12-27T15:42:40.209Z,2.60
2023-12-27T15:47:45.624Z,2.05
2023-12-27T15:52:50.494Z,2.40
2023-12-27T15:57:53.620Z,3.17
2023-12-27T16:02:56.598Z,3.30
2023-12-27T16:08:01.121Z,3.92
2023-12-27T16:13:04.246Z,3.97
2023-12-27T16:18:07.529Z,3.13
2023-12-27T16:23:12.086Z,4.10
2023-12-27T16:28:15.098Z,5.25
2023-12-27T16:33:18.233Z,6.22
2023-12-27T16:38:23.852Z,4.00
2023-12-27T16:43:28.708Z,5.63
2023-12-27T16:48:32.498Z,5.57
2023-12-27T16:53:36.871Z,3.22
2023-12-27T16:58:39.846Z,2.10
2023-12-27T17:03:43.153Z,1.48
2023-12-27T17:08:47.613Z,1.60
2023-12-27T17:13:52.168Z,1.40
2023-12-27T17:18:55.225Z,1.17
2023-12-27T17:23:59.645Z,1.20
2023-12-27T17:29:03.265Z,1.20
2023-12-27T17:34:06.382Z,1.30
2023-12-27T17:39:11.849Z,0.88
2023-12-27T17:44:14.849Z,1.17
2023-12-27T17:49:17.921Z,1.73
2023-12-27T17:54:23.862Z,2.10
2023-12-27T17:59:28.146Z,1.80
2023-12-27T18:04:31.263Z,1.60
2023-12-27T18:09:35.783Z,1.80
2023-12-27T18:14:40.336Z,1.73
2023-12-27T18:19:43.343Z,1.77
2023-12-27T18:24:47.802Z,1.25
2023-12-27T18:29:50.966Z,2.60
2023-12-27T18:34:53.952Z,1.52
2023-12-27T18:39:58.351Z,1.90
2023-12-27T18:45:01.358Z,1.70
2023-12-27T18:50:05.082Z,1.90
2023-12-27T18:55:12.444Z,1.92
2023-12-27T19:00:16.413Z,1.90
2023-12-27T19:05:19.783Z,1.83
2023-12-27T19:10:24.746Z,2.30
2023-12-27T19:15:27.723Z,2.65
2023-12-27T19:20:30.739Z,1.95
2023-12-27T19:25:35.335Z,2.38
2023-12-27T19:30:38.603Z,2.30
2023-12-27T19:35:41.593Z,2.13
2023-12-27T19:40:45.924Z,2.03
2023-12-27T19:45:48.973Z,2.17
2023-12-27T19:50:52.053Z,2.15
2023-12-27T19:55:56.537Z,1.95
2023-12-27T20:01:00.318Z,1.95
2023-12-27T20:06:04.654Z,1.90
2023-12-27T20:11:09.067Z,2.35
2023-12-27T20:16:12.138Z,1.63
2023-12-27T20:21:15.550Z,1.95
2023-12-27T20:26:19.924Z,2.08
2023-12-27T20:31:23.211Z,1.70
2023-12-27T20:36:26.168Z,1.58
2023-12-27T20:41:30.702Z,1.55
2023-12-27T20:46:33.582Z,1.75
2023-12-27T20:51:37.359Z,1.83
2023-12-27T20:56:42.163Z,1.00
2023-12-27T21:01:45.136Z,1.50
2023-12-27T21:06:48.231Z,1.80
2023-12-27T21:11:52.586Z,1.20
2023-12-27T21:16:55.638Z,2.38
2023-12-27T21:21:58.680Z,1.67
2023-12-27T21:27:03.254Z,1.40
2023-12-27T21:32:07.144Z,1.65
2023-12-27T21:37:10.493Z,2.22
2023-12-27T21:42:14.879Z,3.47
2023-12-27T21:47:18.309Z,1.60
2023-12-27T21:52:21.271Z,1.67
2023-12-27T21:57:25.749Z,1.27
2023-12-27T22:02:29.863Z,1.88
2023-12-27T22:07:32.872Z,2.15
2023-12-27T22:12:37.333Z,1.45
2023-12-27T22:17:40.650Z,1.50
2023-12-27T22:22:44.277Z,1.40
2023-12-27T22:27:48.672Z,1.25
2023-12-27T22:32:51.787Z,1.52
2023-12-27T22:37:54.822Z,1.20
2023-12-27T22:43:01.743Z,1.20
2023-12-27T22:48:05.309Z,1.35
2023-12-27T22:53:08.355Z,1.17
2023-12-27T22:58:12.655Z,1.20
2023-12-27T23:03:15.753Z,1.50
2023-12-27T23:08:20.049Z,1.48
2023-12-27T23:13:24.537Z,1.60
2023-12-27T23:18:27.636Z,1.45
2023-12-27T23:23:30.608Z,1.52
2023-12-27T23:28:34.980Z,1.25
2023-12-27T23:33:38.107Z,1.30
2023-12-27T23:38:41.184Z,1.30
2023-12-27T23:43:45.589Z,0.90
2023-12-27T23:48:50.562Z,0.90
2023-12-27T23:53:53.550Z,1.20
2023-12-27T23:58:57.838Z,1.50
